createdAt,value
2023-01-25T00:00:03.962Z,24.58
2023-01-25T00:02:32.096Z,18.15
2023-01-25T00:04:59.454Z,25.70
2023-01-25T00:07:26.772Z,21.50
2023-01-25T00:09:54.059Z,24.33
2023-01-25T00:12:21.248Z,29.88
2023-01-25T00:14:48.539Z,24.63
2023-01-25T00:17:15.788Z,22.25
2023-01-25T00:19:43.120Z,25.73
2023-01-25T00:22:10.341Z,20.30
2023-01-25T00:24:37.664Z,23.38
2023-01-25T00:27:04.946Z,26.70
2023-01-25T00:29:32.368Z,24.52
2023-01-25T00:32:33.263Z,21.65
2023-01-25T00:35:00.704Z,26.33
2023-01-25T00:37:37.739Z,24.70
2023-01-25T00:40:06.669Z,26.73
2023-01-25T00:42:33.981Z,23.35
2023-01-25T00:45:01.236Z,25.75
2023-01-25T00:47:29.155Z,24.17
2023-01-25T00:49:56.382Z,25.85
2023-01-25T00:52:23.592Z,27.45
2023-01-25T00:54:50.860Z,24.48
2023-01-25T00:57:18.153Z,25.20
2023-01-25T00:59:47.508Z,25.95
2023-01-25T01:02:15.589Z,24.90
2023-01-25T01:04:43.089Z,21.92
2023-01-25T01:07:13.053Z,22.58
2023-01-25T01:09:40.423Z,29.15
2023-01-25T01:12:07.746Z,22.50
2023-01-25T01:14:35.010Z,23.58
2023-01-25T01:17:02.417Z,22.73
2023-01-25T01:19:29.737Z,22.00
2023-01-25T01:21:56.955Z,22.15
2023-01-25T01:24:24.203Z,22.80
2023-01-25T01:26:51.423Z,25.48
2023-01-25T01:29:18.668Z,25.15
2023-01-25T01:31:46.141Z,25.65
2023-01-25T01:34:19.867Z,23.52
2023-01-25T01:36:47.353Z,21.60
2023-01-25T01:39:16.113Z,26.02
2023-01-25T01:41:43.369Z,26.55
2023-01-25T01:44:18.321Z,25.80
2023-01-25T01:46:59.175Z,26.20
2023-01-25T01:49:32.743Z,26.15
2023-01-25T01:52:14.546Z,27.42
2023-01-25T01:54:55.929Z,21.20
2023-01-25T01:57:52.427Z,25.83
2023-01-25T02:00:25.688Z,23.77
2023-01-25T02:02:54.541Z,26.52
2023-01-25T02:05:28.016Z,25.38
2023-01-25T02:07:57.409Z,22.92
2023-01-25T02:10:27.065Z,22.02
2023-01-25T02:12:58.067Z,22.45
2023-01-25T02:15:30.947Z,25.13
2023-01-25T02:17:58.916Z,21.60
2023-01-25T02:20:45.686Z,23.83
2023-01-25T02:24:09.669Z,22.40
2023-01-25T02:26:40.168Z,23.98
2023-01-25T02:29:09.766Z,25.73
2023-01-25T02:31:37.269Z,25.90
2023-01-25T02:34:04.585Z,24.20
2023-01-25T02:36:33.929Z,22.17
2023-01-25T02:39:05.884Z,22.90
2023-01-25T02:41:39.146Z,21.02
2023-01-25T02:44:21.960Z,21.70
2023-01-25T02:46:49.307Z,22.92
2023-01-25T02:49:17.684Z,21.30
2023-01-25T02:51:48.976Z,24.65
2023-01-25T02:54:19.073Z,19.35
2023-01-25T02:56:46.990Z,22.15
2023-01-25T02:59:14.719Z,34.65
2023-01-25T03:01:46.642Z,34.60
2023-01-25T03:04:15.875Z,37.10
2023-01-25T03:06:43.186Z,29.95
2023-01-25T03:09:12.036Z,32.90
2023-01-25T03:11:43.620Z,33.00
2023-01-25T03:14:11.465Z,29.40
2023-01-25T03:16:39.579Z,33.05
2023-01-25T03:19:07.206Z,27.73
2023-01-25T03:21:34.596Z,25.40
2023-01-25T03:24:02.952Z,25.70
2023-01-25T03:26:56.783Z,31.00
2023-01-25T03:29:33.532Z,30.33
2023-01-25T03:32:01.860Z,24.98
2023-01-25T03:34:29.381Z,25.58
2023-01-25T03:36:58.355Z,25.00
2023-01-25T03:39:28.298Z,23.30
2023-01-25T03:41:55.558Z,23.25
2023-01-25T03:44:22.931Z,27.30
2023-01-25T03:46:50.391Z,26.10
2023-01-25T03:49:18.625Z,24.45
2023-01-25T03:51:46.593Z,27.67
2023-01-25T03:54:13.812Z,26.55
2023-01-25T03:56:41.375Z,24.05
2023-01-25T03:59:16.503Z,25.90
2023-01-25T04:01:45.154Z,21.90
2023-01-25T04:04:12.818Z,26.92
2023-01-25T04:09:10.060Z,24.67
2023-01-25T04:11:41.694Z,23.02
2023-01-25T04:16:45.437Z,22.80
2023-01-25T04:19:15.377Z,24.77
2023-01-25T04:21:43.122Z,22.90
2023-01-25T04:24:10.551Z,21.35
2023-01-25T04:26:40.062Z,23.52
2023-01-25T04:29:07.305Z,23.23
2023-01-25T04:31:35.179Z,22.95
2023-01-25T04:34:03.347Z,26.48
2023-01-25T04:36:30.611Z,27.85
2023-01-25T04:38:58.660Z,26.92
2023-01-25T04:41:29.202Z,26.85
2023-01-25T04:46:24.988Z,27.98
2023-01-25T04:48:53.940Z,28.13
2023-01-25T04:51:21.677Z,33.47
2023-01-25T04:53:49.010Z,24.92
2023-01-25T04:56:16.316Z,25.25
2023-01-25T04:58:49.238Z,23.27
2023-01-25T05:01:16.655Z,25.85
2023-01-25T05:03:43.930Z,24.95
2023-01-25T05:06:25.452Z,21.67
2023-01-25T05:08:53.339Z,22.58
2023-01-25T05:11:21.035Z,21.42
2023-01-25T05:13:55.145Z,27.02
2023-01-25T05:16:28.265Z,24.15
2023-01-25T05:18:56.163Z,23.27
2023-01-25T05:21:49.983Z,22.08
2023-01-25T05:24:17.417Z,22.67
2023-01-25T05:27:03.416Z,20.98
2023-01-25T05:29:57.523Z,23.65
2023-01-25T05:32:49.419Z,25.10
2023-01-25T05:35:17.758Z,30.17
2023-01-25T05:37:45.840Z,25.60
2023-01-25T05:40:21.550Z,24.25
2023-01-25T05:42:58.596Z,26.90
2023-01-25T05:45:27.567Z,32.15
2023-01-25T05:47:57.590Z,26.50
2023-01-25T05:50:26.704Z,31.45
2023-01-25T05:53:01.360Z,38.60
2023-01-25T05:55:29.889Z,27.27
2023-01-25T05:58:01.732Z,28.48
2023-01-25T06:00:29.006Z,33.03
2023-01-25T06:03:00.639Z,39.92
2023-01-25T06:05:28.019Z,34.85
2023-01-25T06:07:55.532Z,40.47
2023-01-25T06:10:25.804Z,41.90
2023-01-25T06:12:59.788Z,27.23
2023-01-25T06:15:27.496Z,23.33
2023-01-25T06:17:59.080Z,26.40
2023-01-25T06:20:44.895Z,21.17
2023-01-25T06:23:12.181Z,23.48
2023-01-25T06:25:39.437Z,26.50
2023-01-25T06:28:07.000Z,32.10
2023-01-25T06:30:34.341Z,29.45
2023-01-25T06:33:01.866Z,29.23
2023-01-25T06:35:31.713Z,36.90
2023-01-25T06:38:00.144Z,27.20
2023-01-25T06:40:28.647Z,28.98
2023-01-25T06:42:55.887Z,23.65
2023-01-25T06:45:23.125Z,43.60
2023-01-25T06:47:52.121Z,37.25
2023-01-25T06:50:19.403Z,41.30
2023-01-25T06:52:52.461Z,33.90
2023-01-25T06:55:20.734Z,29.90
2023-01-25T06:57:48.623Z,31.92
2023-01-25T07:00:17.051Z,33.90
2023-01-25T07:02:44.416Z,33.83
2023-01-25T07:05:11.955Z,33.28
2023-01-25T07:07:39.435Z,31.30
2023-01-25T07:10:07.179Z,47.70
2023-01-25T07:12:34.459Z,32.22
2023-01-25T07:15:01.877Z,28.38
2023-01-25T07:17:29.131Z,31.13
2023-01-25T07:19:56.360Z,33.80
2023-01-25T07:22:23.715Z,33.30
2023-01-25T07:24:52.288Z,38.85
2023-01-25T07:27:19.748Z,33.08
2023-01-25T07:29:46.982Z,40.08
2023-01-25T07:32:14.546Z,40.30
2023-01-25T07:34:41.883Z,38.90
2023-01-25T07:37:10.206Z,45.25
2023-01-25T07:39:37.526Z,38.78
2023-01-25T07:42:05.095Z,39.28
2023-01-25T07:44:33.124Z,32.47
2023-01-25T07:47:12.695Z,37.40
2023-01-25T07:49:39.928Z,33.13
2023-01-25T07:52:07.520Z,31.80
2023-01-25T07:54:34.822Z,28.38
2023-01-25T07:57:02.252Z,28.55
2023-01-25T07:59:31.344Z,32.95
2023-01-25T08:01:58.597Z,34.47
2023-01-25T08:04:26.428Z,36.20
2023-01-25T08:06:53.744Z,36.35
2023-01-25T08:09:21.031Z,35.80
2023-01-25T08:11:49.494Z,38.60
2023-01-25T08:14:16.971Z,35.38
2023-01-25T08:16:44.632Z,30.13
2023-01-25T08:19:12.114Z,32.63
2023-01-25T08:21:39.380Z,31.48
2023-01-25T08:24:08.579Z,33.63
2023-01-25T08:26:36.748Z,49.78
2023-01-25T08:29:05.609Z,48.05
2023-01-25T08:31:35.410Z,75.50
2023-01-25T08:34:03.199Z,92.25
2023-01-25T08:36:30.451Z,55.30
2023-01-25T08:39:03.858Z,44.10
2023-01-25T08:41:33.265Z,39.53
2023-01-25T08:44:00.782Z,32.90
2023-01-25T08:46:31.498Z,31.48
2023-01-25T08:49:01.200Z,31.23
2023-01-25T08:51:28.744Z,25.77
2023-01-25T08:53:55.984Z,24.10
2023-01-25T08:56:23.323Z,34.65
2023-01-25T08:58:51.416Z,25.75
2023-01-25T09:01:19.967Z,24.20
2023-01-25T09:03:49.798Z,25.85
2023-01-25T09:06:19.800Z,29.23
2023-01-25T09:11:17.729Z,26.42
2023-01-25T09:13:45.150Z,27.08
2023-01-25T09:16:15.092Z,27.45
2023-01-25T09:18:44.309Z,31.10
2023-01-25T09:21:17.423Z,23.42
2023-01-25T09:23:51.203Z,30.17
2023-01-25T09:26:25.767Z,33.38
2023-01-25T09:28:54.591Z,34.72
2023-01-25T09:31:27.002Z,28.38
2023-01-25T09:34:16.241Z,32.45
2023-01-25T09:36:43.808Z,35.13
2023-01-25T09:39:14.414Z,28.90
2023-01-25T09:41:58.443Z,30.55
2023-01-25T09:45:05.796Z,34.15
2023-01-25T09:48:11.303Z,28.10
2023-01-25T09:50:47.246Z,27.75
2023-01-25T09:53:25.651Z,29.10
2023-01-25T09:55:58.907Z,25.00
2023-01-25T09:58:31.966Z,24.73
2023-01-25T10:01:29.497Z,25.38
2023-01-25T10:04:13.149Z,22.13
2023-01-25T10:06:48.750Z,23.70
2023-01-25T10:09:22.115Z,21.90
2023-01-25T10:11:49.481Z,23.67
2023-01-25T10:14:19.634Z,25.55
2023-01-25T10:16:46.936Z,23.70
2023-01-25T10:19:36.041Z,26.15
2023-01-25T10:22:20.134Z,27.50
2023-01-25T10:25:12.147Z,28.05
2023-01-25T10:28:36.398Z,25.05
2023-01-25T10:31:11.579Z,27.10
2023-01-25T10:33:43.685Z,27.50
2023-01-25T10:36:22.468Z,24.42
2023-01-25T10:38:50.119Z,22.10
2023-01-25T10:41:24.990Z,24.95
2023-01-25T10:44:12.372Z,23.75
2023-01-25T10:46:44.100Z,29.08
2023-01-25T10:49:37.957Z,24.58
2023-01-25T10:52:23.491Z,30.42
2023-01-25T10:55:17.460Z,26.67
2023-01-25T10:57:50.581Z,21.70
2023-01-25T11:00:29.868Z,28.08
2023-01-25T11:02:58.302Z,22.23
2023-01-25T11:05:41.820Z,19.47
2023-01-25T11:08:31.435Z,18.35
2023-01-25T11:10:59.780Z,20.65
2023-01-25T11:13:33.564Z,20.70
2023-01-25T11:16:01.708Z,20.85
2023-01-25T11:18:33.838Z,23.50
2023-01-25T11:21:07.444Z,20.65
2023-01-25T11:23:34.909Z,25.35
2023-01-25T11:26:11.402Z,22.20
2023-01-25T11:28:38.756Z,27.38
2023-01-25T11:31:10.934Z,36.17
2023-01-25T11:33:38.967Z,26.40
2023-01-25T11:36:24.366Z,21.52
2023-01-25T11:39:03.610Z,25.30
2023-01-25T11:41:40.189Z,22.52
2023-01-25T11:44:32.477Z,23.90
2023-01-25T11:47:10.092Z,17.80
2023-01-25T11:49:56.218Z,20.42
2023-01-25T11:52:43.814Z,23.83
2023-01-25T11:55:19.928Z,30.15
2023-01-25T11:58:07.127Z,32.85
2023-01-25T12:01:05.908Z,29.65
2023-01-25T12:04:02.497Z,21.42
2023-01-25T12:06:44.597Z,32.67
2023-01-25T12:09:36.858Z,24.67
2023-01-25T12:12:13.831Z,26.50
2023-01-25T12:15:19.515Z,28.60
2023-01-25T12:18:03.108Z,33.97
2023-01-25T12:20:55.210Z,27.52
2023-01-25T12:23:47.191Z,25.33
2023-01-25T12:26:45.272Z,26.77
2023-01-25T12:29:25.136Z,21.40
2023-01-25T12:34:35.847Z,24.38
2023-01-25T12:37:18.522Z,27.95
2023-01-25T12:39:57.297Z,27.85
2023-01-25T12:42:40.361Z,27.92
2023-01-25T12:45:15.704Z,25.67
2023-01-25T12:48:01.572Z,28.67
2023-01-25T12:50:35.671Z,27.30
2023-01-25T12:53:08.991Z,30.17
2023-01-25T12:55:36.530Z,25.92
2023-01-25T12:58:19.781Z,35.45
2023-01-25T13:01:09.045Z,37.38
2023-01-25T13:04:14.662Z,37.90
2023-01-25T13:06:58.306Z,35.47
2023-01-25T13:09:28.416Z,33.63
2023-01-25T13:11:55.876Z,43.47
2023-01-25T13:14:37.987Z,45.70
2023-01-25T13:17:24.928Z,38.33
2023-01-25T13:19:53.506Z,39.53
2023-01-25T13:22:55.093Z,35.58
2023-01-25T13:25:23.926Z,31.25
2023-01-25T13:27:51.162Z,43.35
2023-01-25T13:30:24.368Z,51.00
2023-01-25T13:32:51.633Z,57.67
2023-01-25T13:35:26.744Z,40.67
2023-01-25T13:38:06.547Z,33.13
2023-01-25T13:40:37.360Z,38.47
2023-01-25T13:43:17.621Z,32.90
2023-01-25T13:45:48.142Z,34.70
2023-01-25T13:48:22.246Z,33.75
2023-01-25T13:50:54.029Z,99.22
2023-01-25T13:53:23.823Z,42.80
2023-01-25T13:55:54.301Z,36.80
2023-01-25T13:58:36.580Z,38.50
2023-01-25T14:01:16.765Z,31.65
2023-01-25T14:03:47.421Z,30.52
2023-01-25T14:06:24.724Z,34.33
2023-01-25T14:08:54.259Z,47.70
2023-01-25T14:11:26.098Z,37.75
2023-01-25T14:14:16.464Z,26.60
2023-01-25T14:16:44.454Z,34.88
2023-01-25T14:19:26.987Z,33.78
2023-01-25T14:22:12.912Z,36.28
2023-01-25T14:24:40.573Z,44.85
2023-01-25T14:27:14.400Z,31.63
2023-01-25T14:29:42.175Z,33.22
2023-01-25T14:32:18.155Z,30.92
2023-01-25T14:34:45.417Z,31.10
2023-01-25T14:37:17.914Z,47.75
2023-01-25T14:39:46.369Z,36.13
2023-01-25T14:42:15.742Z,40.15
2023-01-25T14:44:44.928Z,49.50
2023-01-25T14:47:22.997Z,57.05
2023-01-25T14:49:50.545Z,59.97
2023-01-25T14:52:20.640Z,53.20
2023-01-25T14:54:52.605Z,52.50
2023-01-25T14:57:31.235Z,47.00
2023-01-25T15:00:01.351Z,45.17
2023-01-25T15:02:47.899Z,43.70
2023-01-25T15:05:27.380Z,33.50
2023-01-25T15:08:14.066Z,36.35
2023-01-25T15:11:18.694Z,38.17
2023-01-25T15:13:46.016Z,39.28
2023-01-25T15:16:13.566Z,42.22
2023-01-25T15:18:50.673Z,51.42
2023-01-25T15:21:25.996Z,51.22
2023-01-25T15:23:55.448Z,47.80
2023-01-25T15:26:28.417Z,56.83
2023-01-25T15:29:00.653Z,54.70
2023-01-25T15:31:29.394Z,69.63
2023-01-25T15:33:57.611Z,63.65
2023-01-25T15:36:24.891Z,60.45
2023-01-25T15:38:52.459Z,74.50
2023-01-25T15:41:20.030Z,85.18
2023-01-25T15:43:48.410Z,56.80
2023-01-25T15:46:19.789Z,63.10
2023-01-25T15:48:49.430Z,69.15
2023-01-25T15:51:17.046Z,79.78
2023-01-25T15:53:44.433Z,82.75
2023-01-25T15:56:27.751Z,73.07
2023-01-25T15:58:58.392Z,61.13
2023-01-25T16:01:27.736Z,53.50
2023-01-25T16:03:59.574Z,51.90
2023-01-25T16:06:44.237Z,61.80
2023-01-25T16:09:20.896Z,61.70
2023-01-25T16:11:57.109Z,69.40
2023-01-25T16:14:31.864Z,74.45
2023-01-25T16:17:05.669Z,61.13
2023-01-25T16:19:33.783Z,60.42
2023-01-25T16:22:01.042Z,59.28
2023-01-25T16:24:28.288Z,80.18
2023-01-25T16:26:57.804Z,70.53
2023-01-25T16:29:25.095Z,73.22
2023-01-25T16:31:53.502Z,82.10
2023-01-25T16:34:22.195Z,94.07
2023-01-25T16:36:53.197Z,87.68
2023-01-25T16:39:26.442Z,92.18
2023-01-25T16:41:54.249Z,73.30
2023-01-25T16:44:21.513Z,75.57
2023-01-25T16:46:50.310Z,88.32
2023-01-25T16:49:24.517Z,87.68
2023-01-25T16:51:52.864Z,74.45
2023-01-25T16:54:21.267Z,74.43
2023-01-25T16:56:49.786Z,79.13
2023-01-25T16:59:18.332Z,78.32
2023-01-25T17:01:45.982Z,71.07
2023-01-25T17:04:13.613Z,68.57
2023-01-25T17:06:43.979Z,61.80
2023-01-25T17:09:23.424Z,59.30
2023-01-25T17:11:52.944Z,50.15
2023-01-25T17:14:21.801Z,68.03
2023-01-25T17:16:51.855Z,60.65
2023-01-25T17:19:19.996Z,60.00
2023-01-25T17:21:47.664Z,64.03
2023-01-25T17:24:17.067Z,63.40
2023-01-25T17:26:44.961Z,67.05
2023-01-25T17:29:13.768Z,68.35
2023-01-25T17:31:42.301Z,76.40
2023-01-25T17:34:16.224Z,96.72
2023-01-25T17:36:44.704Z,86.97
2023-01-25T17:39:15.460Z,68.07
2023-01-25T17:41:44.285Z,49.47
2023-01-25T17:44:12.418Z,52.42
2023-01-25T17:46:40.235Z,61.75
2023-01-25T17:49:12.108Z,61.13
2023-01-25T17:51:39.758Z,68.45
2023-01-25T17:54:07.067Z,92.40
2023-01-25T17:56:39.657Z,93.60
2023-01-25T17:59:09.117Z,92.70
2023-01-25T18:01:37.747Z,91.72
2023-01-25T18:04:25.595Z,81.90
2023-01-25T18:06:55.343Z,77.28
2023-01-25T18:09:23.776Z,66.57
2023-01-25T18:11:52.312Z,70.88
2023-01-25T18:14:19.941Z,81.03
2023-01-25T18:16:47.284Z,80.55
2023-01-25T18:19:14.623Z,76.43
2023-01-25T18:21:43.381Z,88.95
2023-01-25T18:24:23.154Z,79.72
2023-01-25T18:26:50.751Z,79.20
2023-01-25T18:29:21.146Z,81.35
2023-01-25T18:31:48.690Z,68.95
2023-01-25T18:34:15.946Z,79.25
2023-01-25T18:36:43.158Z,108.40
2023-01-25T18:39:10.544Z,80.00
2023-01-25T18:41:37.804Z,100.60
2023-01-25T18:44:05.265Z,74.88
2023-01-25T18:46:32.541Z,83.22
2023-01-25T18:48:59.787Z,112.97
2023-01-25T18:51:27.082Z,81.00
2023-01-25T18:53:55.301Z,128.48
2023-01-25T18:56:22.743Z,156.20
2023-01-25T18:58:51.299Z,104.03
2023-01-25T19:01:21.428Z,101.80
2023-01-25T19:03:50.268Z,94.03
2023-01-25T19:06:19.213Z,96.13
2023-01-25T19:08:51.856Z,86.80
2023-01-25T19:11:20.511Z,83.97
2023-01-25T19:13:47.964Z,89.68
2023-01-25T19:16:20.761Z,83.07
2023-01-25T19:18:52.243Z,87.03
2023-01-25T19:21:21.925Z,91.93
2023-01-25T19:23:50.811Z,82.97
2023-01-25T19:26:20.509Z,83.47
2023-01-25T19:28:48.348Z,89.57
2023-01-25T19:31:22.606Z,83.80
2023-01-25T19:33:58.602Z,89.50
2023-01-25T19:36:27.034Z,99.00
2023-01-25T19:38:55.058Z,86.07
2023-01-25T19:41:24.561Z,98.82
2023-01-25T19:43:56.787Z,87.18
2023-01-25T19:46:26.937Z,96.90
2023-01-25T19:48:54.933Z,197.77
2023-01-25T19:51:28.030Z,178.27
2023-01-25T19:54:03.078Z,176.27
2023-01-25T19:56:33.608Z,165.80
2023-01-25T19:59:03.670Z,130.70
2023-01-25T20:01:31.422Z,119.45
2023-01-25T20:03:59.303Z,93.00
2023-01-25T20:06:27.020Z,81.43
2023-01-25T20:08:54.472Z,89.97
2023-01-25T20:11:23.213Z,90.53
2023-01-25T20:13:52.537Z,83.82
2023-01-25T20:16:20.272Z,85.82
2023-01-25T20:18:49.314Z,83.88
2023-01-25T20:21:21.792Z,75.65
2023-01-25T20:23:51.175Z,78.63
2023-01-25T20:26:21.852Z,72.95
2023-01-25T20:28:55.363Z,71.95
2023-01-25T20:31:26.973Z,78.10
2023-01-25T20:33:59.449Z,71.53
2023-01-25T20:36:30.306Z,77.90
2023-01-25T20:38:58.189Z,73.03
2023-01-25T20:41:25.913Z,68.32
2023-01-25T20:44:00.857Z,99.50
2023-01-25T20:46:34.422Z,131.75
2023-01-25T20:49:02.237Z,126.07
2023-01-25T20:51:30.059Z,105.70
2023-01-25T20:53:57.600Z,121.03
2023-01-25T20:56:25.189Z,138.82
2023-01-25T20:58:53.491Z,135.90
2023-01-25T21:01:29.658Z,138.40
2023-01-25T21:03:58.178Z,129.98
2023-01-25T21:06:27.053Z,127.70
2023-01-25T21:08:54.441Z,128.95
2023-01-25T21:11:23.243Z,120.25
2023-01-25T21:13:50.613Z,112.15
2023-01-25T21:16:21.600Z,107.03
2023-01-25T21:19:00.184Z,97.78
2023-01-25T21:21:32.646Z,77.95
2023-01-25T21:24:02.722Z,73.40
2023-01-25T21:26:32.435Z,67.43
2023-01-25T21:29:01.350Z,75.75
2023-01-25T21:31:32.895Z,87.53
2023-01-25T21:34:01.578Z,74.80
2023-01-25T21:36:29.116Z,84.18
2023-01-25T21:38:56.863Z,65.03
2023-01-25T21:41:26.741Z,66.53
2023-01-25T21:44:14.164Z,69.50
2023-01-25T21:46:43.543Z,69.40
2023-01-25T21:49:31.784Z,64.65
2023-01-25T21:52:02.110Z,78.65
2023-01-25T21:54:30.603Z,63.70
2023-01-25T21:56:59.406Z,63.45
2023-01-25T21:59:27.439Z,55.10
2023-01-25T22:01:55.427Z,63.50
2023-01-25T22:04:24.585Z,60.03
2023-01-25T22:06:54.954Z,55.72
2023-01-25T22:09:22.825Z,54.53
2023-01-25T22:11:51.026Z,54.28
2023-01-25T22:14:19.347Z,51.15
2023-01-25T22:16:46.603Z,52.33
2023-01-25T22:19:14.322Z,61.78
2023-01-25T22:21:41.527Z,61.25
2023-01-25T22:24:10.325Z,61.72
2023-01-25T22:27:05.368Z,62.55
2023-01-25T22:29:34.167Z,66.90
2023-01-25T22:32:02.369Z,64.78
2023-01-25T22:34:29.738Z,61.75
2023-01-25T22:36:56.992Z,57.55
2023-01-25T22:39:24.249Z,54.53
2023-01-25T22:41:51.474Z,53.78
2023-01-25T22:44:18.754Z,60.35
2023-01-25T22:46:46.469Z,55.38
2023-01-25T22:49:13.760Z,60.03
2023-01-25T22:51:41.062Z,56.70
2023-01-25T22:54:08.319Z,57.00
2023-01-25T22:56:36.750Z,48.97
2023-01-25T22:59:04.444Z,49.90
2023-01-25T23:01:33.686Z,47.63
2023-01-25T23:04:01.397Z,47.03
2023-01-25T23:06:31.249Z,52.05
2023-01-25T23:09:00.269Z,57.88
2023-01-25T23:11:32.362Z,62.67
2023-01-25T23:14:18.823Z,52.90
2023-01-25T23:16:47.369Z,57.45
2023-01-25T23:19:15.404Z,60.17
2023-01-25T23:21:42.829Z,52.47
2023-01-25T23:24:10.648Z,49.13
2023-01-25T23:26:38.083Z,50.60
2023-01-25T23:29:09.167Z,53.80
2023-01-25T23:31:36.868Z,50.05
2023-01-25T23:34:06.177Z,47.97
2023-01-25T23:36:36.138Z,54.42
2023-01-25T23:41:31.573Z,45.25
2023-01-25T23:43:59.779Z,49.22
2023-01-25T23:46:28.309Z,54.55
2023-01-25T23:48:56.066Z,54.03
2023-01-25T23:51:24.145Z,45.25
2023-01-25T23:53:53.467Z,56.67
2023-01-25T23:56:21.798Z,76.97
2023-01-25T23:58:49.531Z,78.75
